Time;durP1;ratioP1;P1;durP2;ratioP2;P2;SDS_P1;SDS_P2;PMS_P1;PMS_P2;Temp;Humidity;BMP_temperature;BMP_pressure;BME280_temperature;BME280_humidity;BME280_pressure;Samples;Min_cycle;Max_cycle;Signal;HPM_P1;HPM_P2
2024/02/03 00:00:06;;;;;;;15.82;6.38;;;;;;;;;;4967426;28;25077;-66
2024/02/03 00:02:32;;;;;;;26.23;7.20;;;;;;;;;;4970111;28;25060;-66
2024/02/03 00:04:58;;;;;;;19.05;6.85;;;;;;;;;;4967991;28;25066;-65
2024/02/03 00:07:24;;;;;;;24.13;6.75;;;;;;;;;;4970530;28;25061;-66
2024/02/03 00:09:50;;;;;;;17.58;6.55;;;;;;;;;;4967037;28;25057;-66
2024/02/03 00:12:18;;;;;;;17.60;6.72;;;;;;;;;;4971095;28;25073;-66
2024/02/03 00:14:44;;;;;;;13.80;5.32;;;;;;;;;;4966313;28;25146;-65
2024/02/03 00:17:10;;;;;;;15.38;6.30;;;;;;;;;;4965302;28;25052;-66
2024/02/03 00:19:36;;;;;;;20.38;6.07;;;;;;;;;;4966426;28;25065;-65
2024/02/03 00:22:02;;;;;;;20.15;5.70;;;;;;;;;;4965440;28;25067;-66
2024/02/03 00:24:28;;;;;;;25.63;5.70;;;;;;;;;;4966235;28;25107;-66
2024/02/03 00:26:54;;;;;;;21.48;6.30;;;;;;;;;;4966609;28;25085;-66
2024/02/03 00:29:20;;;;;;;24.33;6.47;;;;;;;;;;4962049;28;25137;-66
2024/02/03 00:31:46;;;;;;;17.85;6.90;;;;;;;;;;4967573;28;25177;-66
2024/02/03 00:34:12;;;;;;;19.58;5.38;;;;;;;;;;4969166;28;25066;-65
2024/02/03 00:36:38;;;;;;;20.13;5.72;;;;;;;;;;4966486;28;25052;-65
2024/02/03 00:39:05;;;;;;;18.08;4.78;;;;;;;;;;4963963;28;25087;-65
2024/02/03 00:41:31;;;;;;;17.58;5.60;;;;;;;;;;4970370;28;25107;-65
2024/02/03 00:43:57;;;;;;;26.50;6.80;;;;;;;;;;4965402;28;25082;-65
2024/02/03 00:46:23;;;;;;;13.35;5.28;;;;;;;;;;4986993;28;25073;-66
2024/02/03 00:48:49;;;;;;;17.17;6.25;;;;;;;;;;4970138;28;25115;-66
2024/02/03 00:51:15;;;;;;;15.52;5.25;;;;;;;;;;4967926;28;25072;-66
2024/02/03 00:53:44;;;;;;;18.27;5.50;;;;;;;;;;4960351;28;25105;-67
2024/02/03 00:56:11;;;;;;;15.95;4.95;;;;;;;;;;4957688;28;25062;-66
2024/02/03 00:58:37;;;;;;;12.40;5.78;;;;;;;;;;4966701;28;25077;-67
2024/02/03 01:01:03;;;;;;;16.58;5.03;;;;;;;;;;4948267;28;25115;-66
2024/02/03 01:03:29;;;;;;;18.33;5.50;;;;;;;;;;4951792;28;25058;-67
2024/02/03 01:05:55;;;;;;;19.70;4.60;;;;;;;;;;4967912;28;25084;-68
2024/02/03 01:08:21;;;;;;;15.52;5.60;;;;;;;;;;4991594;28;25067;-65
2024/02/03 01:10:47;;;;;;;19.75;4.93;;;;;;;;;;4992529;28;25054;-67
2024/02/03 01:13:14;;;;;;;17.15;5.68;;;;;;;;;;4981695;28;25081;-63
2024/02/03 01:15:40;;;;;;;17.45;5.32;;;;;;;;;;4975195;28;25071;-67
2024/02/03 01:18:06;;;;;;;12.82;5.55;;;;;;;;;;4972459;28;25135;-67
2024/02/03 01:20:33;;;;;;;18.58;4.82;;;;;;;;;;4976312;28;25072;-67
2024/02/03 01:22:59;;;;;;;18.08;5.25;;;;;;;;;;4969812;28;25057;-65
2024/02/03 01:25:25;;;;;;;12.30;5.65;;;;;;;;;;4970373;28;25092;-65
2024/02/03 01:27:51;;;;;;;14.20;5.00;;;;;;;;;;4969122;28;25105;-66
2024/02/03 01:30:17;;;;;;;20.70;5.85;;;;;;;;;;4969117;28;25061;-65
2024/02/03 01:32:43;;;;;;;14.35;5.03;;;;;;;;;;4969235;28;25083;-66
2024/02/03 01:35:09;;;;;;;15.68;5.32;;;;;;;;;;4970232;28;25064;-68
2024/02/03 01:37:36;;;;;;;13.60;4.60;;;;;;;;;;4969030;28;25080;-65
2024/02/03 01:40:03;;;;;;;14.60;5.20;;;;;;;;;;4974445;28;25181;-64
2024/02/03 01:42:29;;;;;;;17.42;5.63;;;;;;;;;;4995419;28;25083;-65
2024/02/03 01:44:55;;;;;;;12.52;4.45;;;;;;;;;;4970173;28;25077;-66
2024/02/03 01:47:21;;;;;;;14.63;5.07;;;;;;;;;;4966866;28;25173;-65
2024/02/03 01:49:49;;;;;;;15.15;4.80;;;;;;;;;;4966816;28;25064;-66
2024/02/03 01:52:15;;;;;;;19.25;4.43;;;;;;;;;;4968715;28;25099;-67
2024/02/03 01:54:43;;;;;;;12.75;4.05;;;;;;;;;;4968272;28;25190;-66
2024/02/03 01:57:09;;;;;;;10.85;4.18;;;;;;;;;;4964789;28;25048;-67
2024/02/03 01:59:35;;;;;;;8.10;3.72;;;;;;;;;;4961898;28;25113;-67
2024/02/03 02:02:01;;;;;;;14.88;4.43;;;;;;;;;;4958816;28;25105;-66
2024/02/03 02:04:30;;;;;;;15.80;4.05;;;;;;;;;;4953228;28;25064;-66
2024/02/03 02:06:57;;;;;;;8.32;3.40;;;;;;;;;;4962858;28;25095;-64
2024/02/03 02:09:23;;;;;;;17.70;4.28;;;;;;;;;;4969932;28;25063;-64
2024/02/03 02:11:51;;;;;;;11.25;4.07;;;;;;;;;;4987561;28;25143;-64
2024/02/03 02:14:17;;;;;;;12.95;3.90;;;;;;;;;;4967923;28;25127;-65
2024/02/03 02:16:43;;;;;;;19.00;3.70;;;;;;;;;;4968097;28;25165;-67
2024/02/03 02:19:09;;;;;;;13.82;4.18;;;;;;;;;;4968354;28;25055;-66
2024/02/03 02:21:36;;;;;;;20.75;4.57;;;;;;;;;;4970895;28;25071;-68
2024/02/03 02:24:02;;;;;;;11.50;3.67;;;;;;;;;;4971137;28;25044;-68
2024/02/03 02:26:27;;;;;;;25.45;6.45;;;;;;;;;;4975081;28;25084;-68
2024/02/03 02:28:53;;;;;;;17.85;4.18;;;;;;;;;;4987172;28;25140;-66
2024/02/03 02:31:19;;;;;;;13.20;3.75;;;;;;;;;;4973404;28;25091;-68
2024/02/03 02:33:46;;;;;;;17.90;4.30;;;;;;;;;;4972124;28;25159;-66
2024/02/03 02:36:12;;;;;;;15.45;3.85;;;;;;;;;;4968676;28;25054;-67
2024/02/03 02:38:38;;;;;;;12.07;4.03;;;;;;;;;;4969164;28;25072;-66
2024/02/03 02:41:04;;;;;;;15.02;3.60;;;;;;;;;;4969271;28;25100;-66
2024/02/03 02:43:30;;;;;;;15.38;3.35;;;;;;;;;;4969943;28;25051;-65
2024/02/03 02:45:56;;;;;;;12.30;3.60;;;;;;;;;;4969350;28;25103;-64
2024/02/03 02:48:22;;;;;;;10.82;3.38;;;;;;;;;;4965999;28;25079;-66
2024/02/03 02:50:49;;;;;;;11.57;3.20;;;;;;;;;;4967003;28;25068;-66
2024/02/03 02:53:15;;;;;;;12.05;3.67;;;;;;;;;;4967408;28;25154;-67
2024/02/03 02:55:41;;;;;;;23.42;4.53;;;;;;;;;;4967182;28;25104;-67
2024/02/03 02:58:07;;;;;;;13.07;3.42;;;;;;;;;;4967628;28;25139;-66
2024/02/03 03:00:33;;;;;;;12.55;3.20;;;;;;;;;;4970910;28;25149;-68
2024/02/03 03:03:00;;;;;;;12.40;3.80;;;;;;;;;;4967412;28;25071;-67
2024/02/03 03:05:26;;;;;;;15.98;3.28;;;;;;;;;;4966712;28;25061;-66
2024/02/03 03:07:52;;;;;;;9.88;2.92;;;;;;;;;;4967538;28;25059;-66
2024/02/03 03:10:18;;;;;;;12.20;3.25;;;;;;;;;;4966242;28;25067;-67
2024/02/03 03:12:44;;;;;;;10.90;2.90;;;;;;;;;;4965205;28;25150;-67
2024/02/03 03:15:10;;;;;;;11.60;3.40;;;;;;;;;;4972133;28;25066;-67
2024/02/03 03:17:36;;;;;;;9.70;2.92;;;;;;;;;;4973092;28;25181;-68
2024/02/03 03:20:02;;;;;;;19.13;3.25;;;;;;;;;;4969242;28;25094;-67
2024/02/03 03:22:28;;;;;;;13.20;4.00;;;;;;;;;;4968450;28;25065;-66
2024/02/03 03:24:54;;;;;;;12.55;3.90;;;;;;;;;;4973706;28;25159;-68
2024/02/03 03:27:20;;;;;;;13.13;3.17;;;;;;;;;;4980554;28;25141;-70
2024/02/03 03:29:47;;;;;;;14.18;3.22;;;;;;;;;;4965069;28;25060;-66
2024/02/03 03:32:14;;;;;;;14.70;3.58;;;;;;;;;;4954399;28;25060;-69
2024/02/03 03:34:40;;;;;;;13.40;3.05;;;;;;;;;;4950410;28;25069;-67
2024/02/03 03:37:07;;;;;;;13.70;2.95;;;;;;;;;;4951605;28;25078;-66
2024/02/03 03:39:33;;;;;;;11.40;3.00;;;;;;;;;;4965107;28;25065;-70
2024/02/03 03:41:59;;;;;;;11.93;3.03;;;;;;;;;;4967623;28;25054;-66
2024/02/03 03:44:25;;;;;;;9.15;3.30;;;;;;;;;;4966226;28;25131;-66
2024/02/03 03:46:51;;;;;;;10.93;2.97;;;;;;;;;;4967076;28;25176;-69
2024/02/03 03:49:18;;;;;;;15.27;3.33;;;;;;;;;;4967774;28;25136;-66
2024/02/03 03:51:44;;;;;;;17.15;3.83;;;;;;;;;;4987083;28;25115;-67
2024/02/03 03:54:10;;;;;;;16.17;3.08;;;;;;;;;;4969324;28;25138;-66
2024/02/03 03:56:36;;;;;;;12.55;3.00;;;;;;;;;;4961654;28;25162;-68
2024/02/03 03:59:02;;;;;;;23.20;3.13;;;;;;;;;;4965569;28;25086;-66
2024/02/03 04:01:28;;;;;;;26.45;4.50;;;;;;;;;;4963833;28;25045;-67
2024/02/03 04:03:54;;;;;;;10.80;3.20;;;;;;;;;;4966533;28;25083;-66
2024/02/03 04:06:19;;;;;;;12.93;3.08;;;;;;;;;;4963636;28;25087;-65
2024/02/03 04:08:45;;;;;;;14.57;3.28;;;;;;;;;;4965723;28;25075;-66
2024/02/03 04:11:11;;;;;;;14.13;3.30;;;;;;;;;;4967541;28;25084;-68
2024/02/03 04:13:39;;;;;;;10.65;3.05;;;;;;;;;;4968014;28;25066;-67
2024/02/03 04:16:06;;;;;;;11.65;3.17;;;;;;;;;;4968687;28;25053;-67
2024/02/03 04:18:32;;;;;;;17.48;3.70;;;;;;;;;;4968491;28;25138;-69
2024/02/03 04:20:58;;;;;;;14.57;3.40;;;;;;;;;;4971170;28;25065;-67
2024/02/03 04:23:24;;;;;;;15.00;3.10;;;;;;;;;;4971118;28;25069;-66
2024/02/03 04:25:50;;;;;;;10.55;3.05;;;;;;;;;;4971195;28;25089;-67
2024/02/03 04:28:16;;;;;;;12.43;3.15;;;;;;;;;;4970870;28;25070;-68
2024/02/03 04:30:42;;;;;;;14.95;2.63;;;;;;;;;;4967654;28;25154;-66
2024/02/03 04:33:08;;;;;;;12.70;3.65;;;;;;;;;;4970524;28;25108;-69
2024/02/03 04:35:34;;;;;;;9.38;3.17;;;;;;;;;;4969545;28;25154;-68
2024/02/03 04:38:02;;;;;;;12.40;3.05;;;;;;;;;;4971358;28;25048;-67
2024/02/03 04:40:28;;;;;;;16.58;3.35;;;;;;;;;;4966411;28;25067;-67
2024/02/03 04:42:55;;;;;;;14.35;3.65;;;;;;;;;;4945225;28;25110;-68
2024/02/03 04:45:21;;;;;;;17.65;3.33;;;;;;;;;;4968010;28;25071;-67
2024/02/03 04:47:47;;;;;;;11.02;2.70;;;;;;;;;;4969340;28;25103;-67
2024/02/03 04:50:13;;;;;;;21.27;3.88;;;;;;;;;;4968750;28;25069;-67
2024/02/03 04:52:39;;;;;;;13.95;3.28;;;;;;;;;;4965037;28;25066;-68
2024/02/03 04:55:05;;;;;;;16.02;2.92;;;;;;;;;;4971865;28;25078;-67
2024/02/03 04:57:31;;;;;;;22.40;3.60;;;;;;;;;;4969478;28;25133;-67
2024/02/03 04:59:57;;;;;;;11.38;2.75;;;;;;;;;;4969329;28;25057;-66
2024/02/03 05:02:23;;;;;;;11.55;3.05;;;;;;;;;;4969011;28;25169;-68
2024/02/03 05:04:49;;;;;;;13.15;2.70;;;;;;;;;;4966823;28;25061;-68
2024/02/03 05:07:15;;;;;;;13.95;3.33;;;;;;;;;;4967312;28;25065;-68
2024/02/03 05:09:41;;;;;;;12.23;2.83;;;;;;;;;;4968711;28;25058;-68
2024/02/03 05:12:07;;;;;;;12.93;3.15;;;;;;;;;;4969470;28;25169;-67
2024/02/03 05:14:33;;;;;;;15.23;3.50;;;;;;;;;;4966739;28;25070;-69
2024/02/03 05:16:59;;;;;;;15.98;3.08;;;;;;;;;;4955295;28;25050;-67
2024/02/03 05:19:27;;;;;;;21.77;3.65;;;;;;;;;;4947709;28;25055;-66
2024/02/03 05:21:53;;;;;;;14.77;2.97;;;;;;;;;;4945583;28;25133;-67
2024/02/03 05:24:19;;;;;;;22.38;3.67;;;;;;;;;;4968872;28;25088;-66
2024/02/03 05:26:45;;;;;;;12.80;2.78;;;;;;;;;;4971645;28;25065;-67
2024/02/03 05:29:11;;;;;;;18.05;4.03;;;;;;;;;;4967263;28;25055;-66
2024/02/03 05:31:37;;;;;;;11.43;3.28;;;;;;;;;;4971125;28;25063;-69
2024/02/03 05:34:03;;;;;;;11.23;3.35;;;;;;;;;;4971055;28;25068;-68
2024/02/03 05:36:30;;;;;;;14.52;3.92;;;;;;;;;;4991364;28;25063;-66
2024/02/03 05:38:56;;;;;;;15.65;3.30;;;;;;;;;;4967565;28;25145;-66
2024/02/03 05:41:22;;;;;;;12.52;2.70;;;;;;;;;;4978776;28;25278;-68
2024/02/03 05:43:48;;;;;;;21.10;4.22;;;;;;;;;;4993067;28;25152;-69
2024/02/03 05:46:14;;;;;;;11.95;3.80;;;;;;;;;;4985968;28;25162;-67
2024/02/03 05:48:40;;;;;;;17.77;3.58;;;;;;;;;;4975283;28;25078;-69
2024/02/03 05:51:06;;;;;;;17.90;3.55;;;;;;;;;;4975687;28;25165;-67
2024/02/03 05:53:35;;;;;;;13.32;2.80;;;;;;;;;;4970560;28;25080;-66
2024/02/03 05:56:02;;;;;;;14.18;3.20;;;;;;;;;;4970167;28;25088;-66
2024/02/03 05:58:28;;;;;;;13.80;2.78;;;;;;;;;;4971420;28;25056;-68
2024/02/03 06:00:55;;;;;;;13.55;3.45;;;;;;;;;;4971440;28;25075;-66
2024/02/03 06:03:21;;;;;;;15.00;2.95;;;;;;;;;;4974664;28;25078;-69
2024/02/03 06:05:47;;;;;;;13.65;3.28;;;;;;;;;;4973309;28;25069;-67
2024/02/03 06:08:13;;;;;;;12.65;3.40;;;;;;;;;;4971502;28;25069;-66
2024/02/03 06:10:39;;;;;;;11.32;3.05;;;;;;;;;;4967448;28;25078;-67
2024/02/03 06:13:05;;;;;;;15.43;3.33;;;;;;;;;;4968402;28;25062;-67
2024/02/03 06:15:31;;;;;;;16.98;3.75;;;;;;;;;;4968581;28;25200;-67
2024/02/03 06:17:57;;;;;;;17.58;3.67;;;;;;;;;;4971780;28;25168;-66
2024/02/03 06:20:23;;;;;;;15.60;3.88;;;;;;;;;;4967492;28;25058;-66
2024/02/03 06:22:49;;;;;;;22.20;3.70;;;;;;;;;;4968487;28;25080;-67
2024/02/03 06:25:15;;;;;;;18.23;3.80;;;;;;;;;;4968598;28;25112;-67
2024/02/03 06:27:41;;;;;;;20.75;4.80;;;;;;;;;;4967636;28;25171;-67
2024/02/03 06:30:08;;;;;;;15.70;4.05;;;;;;;;;;4969330;28;25074;-67
2024/02/03 06:32:33;;;;;;;11.60;3.45;;;;;;;;;;4968594;28;25079;-66
2024/02/03 06:34:59;;;;;;;17.52;3.83;;;;;;;;;;4971200;28;25055;-67
2024/02/03 06:37:25;;;;;;;18.00;5.55;;;;;;;;;;4967369;28;25052;-68
2024/02/03 06:39:51;;;;;;;24.75;4.82;;;;;;;;;;4968483;28;25076;-68
2024/02/03 06:42:17;;;;;;;17.58;5.15;;;;;;;;;;4967825;28;25092;-69
2024/02/03 06:44:43;;;;;;;15.15;3.83;;;;;;;;;;4964924;28;25071;-68
2024/02/03 06:47:09;;;;;;;22.15;5.22;;;;;;;;;;4963914;28;25151;-66
2024/02/03 06:49:35;;;;;;;19.40;4.60;;;;;;;;;;4965230;28;25101;-68
2024/02/03 06:52:01;;;;;;;19.92;4.28;;;;;;;;;;4968778;28;25146;-65
2024/02/03 06:54:27;;;;;;;23.58;4.55;;;;;;;;;;4965619;28;25050;-65
2024/02/03 06:56:54;;;;;;;24.55;4.18;;;;;;;;;;4968230;28;25056;-65
2024/02/03 06:59:20;;;;;;;22.67;4.60;;;;;;;;;;4969352;28;25091;-65
2024/02/03 07:01:46;;;;;;;25.85;5.45;;;;;;;;;;4962177;28;25103;-65
2024/02/03 07:04:12;;;;;;;16.27;3.92;;;;;;;;;;4943796;28;25088;-66
2024/02/03 07:06:38;;;;;;;20.50;4.43;;;;;;;;;;4969083;28;25072;-66
2024/02/03 07:09:05;;;;;;;23.67;5.05;;;;;;;;;;4968153;28;25067;-66
2024/02/03 07:11:31;;;;;;;26.50;5.50;;;;;;;;;;4967767;28;25086;-65
2024/02/03 07:13:57;;;;;;;24.30;5.65;;;;;;;;;;4980394;28;25088;-67
2024/02/03 07:16:22;;;;;;;24.50;5.70;;;;;;;;;;4970235;28;25126;-66
2024/02/03 07:18:48;;;;;;;25.17;5.72;;;;;;;;;;4964669;28;25071;-66
2024/02/03 07:21:15;;;;;;;26.23;5.30;;;;;;;;;;4967095;28;25126;-66
2024/02/03 07:23:42;;;;;;;28.98;5.70;;;;;;;;;;4968093;28;25149;-67
2024/02/03 07:26:08;;;;;;;28.02;5.22;;;;;;;;;;4959450;28;25077;-65
2024/02/03 07:28:34;;;;;;;23.52;5.80;;;;;;;;;;4948321;28;25074;-66
2024/02/03 07:31:00;;;;;;;24.63;5.57;;;;;;;;;;4944554;28;25069;-66
2024/02/03 07:33:26;;;;;;;33.55;7.80;;;;;;;;;;4943241;28;25094;-66
2024/02/03 07:35:52;;;;;;;31.60;6.88;;;;;;;;;;4944408;28;25116;-64
2024/02/03 07:38:18;;;;;;;30.23;5.75;;;;;;;;;;4955180;28;25059;-66
2024/02/03 07:40:44;;;;;;;29.17;6.30;;;;;;;;;;4966174;28;25061;-67
2024/02/03 07:43:10;;;;;;;25.88;5.38;;;;;;;;;;4958497;28;25045;-66
2024/02/03 07:45:36;;;;;;;26.67;6.10;;;;;;;;;;4977324;28;25158;-65
2024/02/03 07:48:02;;;;;;;26.73;6.28;;;;;;;;;;4966672;28;25072;-66
2024/02/03 07:50:28;;;;;;;25.80;6.55;;;;;;;;;;4967352;28;25070;-68
2024/02/03 07:52:54;;;;;;;23.00;7.00;;;;;;;;;;4966601;28;25167;-66
2024/02/03 07:55:20;;;;;;;37.85;8.68;;;;;;;;;;4964469;28;25071;-65
2024/02/03 07:57:46;;;;;;;35.33;6.60;;;;;;;;;;4967074;28;25077;-69
2024/02/03 08:00:12;;;;;;;34.28;6.75;;;;;;;;;;4964131;28;25122;-66
2024/02/03 08:02:38;;;;;;;28.95;7.13;;;;;;;;;;4962134;28;25060;-67
2024/02/03 08:05:04;;;;;;;28.85;6.78;;;;;;;;;;4978431;28;25076;-67
2024/02/03 08:07:30;;;;;;;34.03;7.78;;;;;;;;;;4975937;28;25079;-66
2024/02/03 08:09:56;;;;;;;34.78;7.95;;;;;;;;;;4967969;28;25061;-67
2024/02/03 08:12:22;;;;;;;30.92;7.88;;;;;;;;;;4956897;28;25062;-66
2024/02/03 08:14:48;;;;;;;21.13;6.03;;;;;;;;;;4967588;28;25083;-68
2024/02/03 08:17:14;;;;;;;28.13;6.75;;;;;;;;;;4974537;28;25066;-66
2024/02/03 08:19:40;;;;;;;25.95;6.43;;;;;;;;;;4966343;28;25077;-66
2024/02/03 08:22:06;;;;;;;25.35;5.85;;;;;;;;;;4970619;28;25299;-67
2024/02/03 08:24:32;;;;;;;27.77;6.70;;;;;;;;;;4968562;28;25061;-66
2024/02/03 08:26:58;;;;;;;28.70;5.97;;;;;;;;;;4967542;28;26178;-66
2024/02/03 08:29:24;;;;;;;32.38;6.45;;;;;;;;;;4961736;28;25068;-67
2024/02/03 08:31:50;;;;;;;22.08;6.25;;;;;;;;;;4967212;28;25104;-66
2024/02/03 08:34:16;;;;;;;29.92;5.95;;;;;;;;;;4967747;28;25090;-66
2024/02/03 08:36:42;;;;;;;34.63;6.03;;;;;;;;;;4968319;28;25070;-66
2024/02/03 08:39:08;;;;;;;31.10;5.65;;;;;;;;;;4970385;28;25101;-67
2024/02/03 08:41:34;;;;;;;36.05;7.93;;;;;;;;;;4968811;28;25074;-69
2024/02/03 08:44:00;;;;;;;31.35;5.95;;;;;;;;;;4971488;28;25058;-64
2024/02/03 08:46:26;;;;;;;25.60;6.13;;;;;;;;;;4972639;28;25053;-66
2024/02/03 08:48:52;;;;;;;24.55;6.00;;;;;;;;;;4965985;28;25059;-65
2024/02/03 08:51:18;;;;;;;23.40;5.50;;;;;;;;;;4968193;28;25060;-67
2024/02/03 08:53:44;;;;;;;26.95;5.90;;;;;;;;;;4964686;28;25084;-67
2024/02/03 08:56:10;;;;;;;25.50;5.90;;;;;;;;;;4965602;28;25071;-65
2024/02/03 08:58:36;;;;;;;22.52;5.55;;;;;;;;;;4971472;28;25131;-67
2024/02/03 09:01:02;;;;;;;23.70;5.72;;;;;;;;;;4956398;28;25160;-68
2024/02/03 09:03:28;;;;;;;29.80;6.47;;;;;;;;;;4966895;28;25074;-66
2024/02/03 09:05:54;;;;;;;27.20;5.60;;;;;;;;;;4964969;28;25052;-67
2024/02/03 09:08:20;;;;;;;26.15;5.82;;;;;;;;;;4970549;28;25050;-64
2024/02/03 09:10:46;;;;;;;22.45;5.15;;;;;;;;;;4957540;28;25085;-64
2024/02/03 09:13:12;;;;;;;23.85;6.38;;;;;;;;;;4953399;28;25066;-65
2024/02/03 09:15:38;;;;;;;27.45;6.28;;;;;;;;;;4970955;28;25055;-67
2024/02/03 09:18:04;;;;;;;27.23;5.85;;;;;;;;;;4970893;28;25046;-67
2024/02/03 09:20:30;;;;;;;15.38;4.43;;;;;;;;;;4979791;28;25056;-65
2024/02/03 09:22:56;;;;;;;21.50;5.35;;;;;;;;;;4975015;28;25145;-65
2024/02/03 09:25:22;;;;;;;15.98;4.57;;;;;;;;;;4974461;28;25132;-67
2024/02/03 09:27:48;;;;;;;25.40;4.80;;;;;;;;;;4969024;28;25146;-66
2024/02/03 09:30:14;;;;;;;20.52;4.82;;;;;;;;;;4951574;28;25046;-67
2024/02/03 09:32:40;;;;;;;16.05;4.45;;;;;;;;;;4975804;28;25069;-67
2024/02/03 09:35:06;;;;;;;16.30;4.40;;;;;;;;;;4968105;28;25079;-65
2024/02/03 09:37:32;;;;;;;23.85;4.95;;;;;;;;;;4968528;28;25079;-66
2024/02/03 09:39:58;;;;;;;17.90;4.15;;;;;;;;;;4969454;28;25106;-65
2024/02/03 09:42:24;;;;;;;14.05;4.28;;;;;;;;;;4969873;28;25052;-67
2024/02/03 09:44:50;;;;;;;17.42;3.95;;;;;;;;;;4991310;28;25060;-67
2024/02/03 09:47:17;;;;;;;18.95;4.45;;;;;;;;;;4974056;28;25059;-68
2024/02/03 09:49:44;;;;;;;18.92;3.70;;;;;;;;;;4976669;28;25058;-68
2024/02/03 09:52:14;;;;;;;16.02;4.43;;;;;;;;;;4969827;28;25073;-66
2024/02/03 09:54:41;;;;;;;12.02;3.42;;;;;;;;;;4968492;28;25105;-65
2024/02/03 09:57:07;;;;;;;14.07;3.15;;;;;;;;;;4952969;28;25108;-67
2024/02/03 09:59:33;;;;;;;15.38;3.60;;;;;;;;;;4963565;28;25132;-66
2024/02/03 10:01:59;;;;;;;14.55;4.07;;;;;;;;;;4955266;28;25057;-68
2024/02/03 10:04:25;;;;;;;14.55;4.25;;;;;;;;;;4966980;28;25129;-65
2024/02/03 10:07:00;;;;;;;12.27;3.97;;;;;;;;;;4968535;28;25077;-66
2024/02/03 10:09:26;;;;;;;13.20;3.40;;;;;;;;;;4969839;28;25058;-64
2024/02/03 10:11:52;;;;;;;16.77;4.10;;;;;;;;;;4968986;28;25068;-67
2024/02/03 10:14:18;;;;;;;13.23;3.97;;;;;;;;;;4986593;28;25151;-66
2024/02/03 10:16:45;;;;;;;15.40;4.30;;;;;;;;;;4968389;28;25089;-67
2024/02/03 10:19:11;;;;;;;21.77;5.20;;;;;;;;;;4973446;28;25106;-68
2024/02/03 10:21:37;;;;;;;16.95;3.90;;;;;;;;;;4973598;28;25114;-68
2024/02/03 10:24:03;;;;;;;14.43;3.50;;;;;;;;;;4977705;28;25068;-66
2024/02/03 10:26:29;;;;;;;16.65;4.00;;;;;;;;;;4982328;28;25111;-67
2024/02/03 10:28:55;;;;;;;12.65;3.72;;;;;;;;;;4971869;28;25047;-66
2024/02/03 10:31:21;;;;;;;17.92;3.78;;;;;;;;;;4980855;28;25095;-67
2024/02/03 10:33:47;;;;;;;11.77;3.75;;;;;;;;;;4973944;28;25077;-68
2024/02/03 10:36:13;;;;;;;15.23;4.55;;;;;;;;;;4972082;28;25070;-65
2024/02/03 10:38:41;;;;;;;15.38;4.20;;;;;;;;;;4975498;28;25108;-67
2024/02/03 10:41:09;;;;;;;22.75;4.63;;;;;;;;;;4968967;28;25128;-68
2024/02/03 10:43:35;;;;;;;18.23;4.70;;;;;;;;;;4971531;28;25064;-68
2024/02/03 10:46:02;;;;;;;19.80;4.50;;;;;;;;;;4984199;28;25124;-66
2024/02/03 10:48:28;;;;;;;12.02;3.30;;;;;;;;;;4968225;28;25129;-67
2024/02/03 10:51:03;;;;;;;19.17;4.15;;;;;;;;;;4967306;28;25145;-67
2024/02/03 10:53:31;;;;;;;15.43;3.50;;;;;;;;;;4977771;28;25152;-67
2024/02/03 10:56:00;;;;;;;16.10;4.05;;;;;;;;;;4992289;28;25061;-66
2024/02/03 10:58:27;;;;;;;15.65;3.88;;;;;;;;;;4970518;28;25142;-66
2024/02/03 11:00:56;;;;;;;13.70;3.38;;;;;;;;;;4968033;28;25065;-67
2024/02/03 11:03:22;;;;;;;16.58;4.05;;;;;;;;;;4985996;28;25053;-65
2024/02/03 11:05:52;;;;;;;17.38;3.33;;;;;;;;;;4967513;28;25054;-66
2024/02/03 11:08:19;;;;;;;15.30;3.80;;;;;;;;;;4966551;28;24950;-66
2024/02/03 11:10:48;;;;;;;12.82;4.10;;;;;;;;;;4973115;28;25139;-67
2024/02/03 11:13:21;;;;;;;10.63;3.53;;;;;;;;;;4969792;28;25081;-65
2024/02/03 11:15:47;;;;;;;22.48;3.85;;;;;;;;;;4967182;28;25129;-65
2024/02/03 11:18:14;;;;;;;10.32;3.20;;;;;;;;;;4963226;28;25105;-67
2024/02/03 11:20:40;;;;;;;12.57;3.90;;;;;;;;;;4966609;28;25092;-65
2024/02/03 11:23:13;;;;;;;12.52;3.33;;;;;;;;;;4964643;28;25055;-67
2024/02/03 11:25:41;;;;;;;9.88;3.85;;;;;;;;;;4971500;28;25081;-65
2024/02/03 11:28:07;;;;;;;13.77;3.83;;;;;;;;;;4967699;28;25099;-66
2024/02/03 11:30:33;;;;;;;14.77;4.22;;;;;;;;;;4972923;28;25055;-67
2024/02/03 11:32:59;;;;;;;12.00;4.13;;;;;;;;;;4967857;28;25152;-65
2024/02/03 11:35:25;;;;;;;16.15;3.90;;;;;;;;;;4976500;28;25155;-67
2024/02/03 11:37:51;;;;;;;14.23;4.10;;;;;;;;;;4971527;28;25055;-66
2024/02/03 11:40:17;;;;;;;12.18;4.60;;;;;;;;;;4970729;28;25068;-68
2024/02/03 11:42:43;;;;;;;21.63;4.25;;;;;;;;;;4968917;28;25076;-68
2024/02/03 11:45:13;;;;;;;16.17;5.05;;;;;;;;;;4968652;28;25094;-67
2024/02/03 11:47:39;;;;;;;17.88;4.10;;;;;;;;;;4973827;28;25193;-68
2024/02/03 11:50:06;;;;;;;14.05;4.00;;;;;;;;;;4972990;28;25123;-66
2024/02/03 11:52:32;;;;;;;17.52;3.90;;;;;;;;;;4967816;28;25070;-65
2024/02/03 11:54:58;;;;;;;19.10;4.07;;;;;;;;;;4965903;28;25052;-63
2024/02/03 11:57:25;;;;;;;18.08;4.07;;;;;;;;;;4983855;28;25146;-66
2024/02/03 12:00:00;;;;;;;12.85;3.53;;;;;;;;;;4966862;28;25129;-67
2024/02/03 12:02:27;;;;;;;11.98;4.10;;;;;;;;;;4970727;28;25140;-67
2024/02/03 12:04:53;;;;;;;14.68;3.90;;;;;;;;;;4967718;28;25055;-66
2024/02/03 12:07:19;;;;;;;15.27;4.00;;;;;;;;;;4965707;28;25062;-67
2024/02/03 12:09:45;;;;;;;8.93;3.83;;;;;;;;;;4967927;28;25159;-65
2024/02/03 12:12:11;;;;;;;11.82;4.00;;;;;;;;;;4946447;28;25135;-66
2024/02/03 12:14:37;;;;;;;12.25;3.97;;;;;;;;;;4964637;28;25116;-67
2024/02/03 12:17:03;;;;;;;14.68;4.57;;;;;;;;;;4967516;28;25082;-66
2024/02/03 12:19:29;;;;;;;14.63;4.65;;;;;;;;;;4966585;28;25171;-65
2024/02/03 12:21:57;;;;;;;10.02;4.50;;;;;;;;;;4985522;28;25155;-67
2024/02/03 12:24:23;;;;;;;13.20;3.60;;;;;;;;;;4965350;28;25096;-68
2024/02/03 12:26:49;;;;;;;13.07;4.40;;;;;;;;;;4966107;28;25170;-66
2024/02/03 12:29:15;;;;;;;9.82;4.45;;;;;;;;;;4967518;28;25063;-68
2024/02/03 12:31:41;;;;;;;14.75;4.97;;;;;;;;;;4969849;28;25067;-66
2024/02/03 12:34:07;;;;;;;14.48;4.70;;;;;;;;;;4969927;28;25068;-67
2024/02/03 12:36:33;;;;;;;11.80;4.05;;;;;;;;;;4971916;28;25076;-67
2024/02/03 12:38:59;;;;;;;12.15;3.72;;;;;;;;;;4972699;28;25059;-66
2024/02/03 12:41:25;;;;;;;7.88;3.95;;;;;;;;;;4968480;28;25074;-65
2024/02/03 12:43:51;;;;;;;18.40;3.63;;;;;;;;;;4968579;28;25105;-67
2024/02/03 12:46:17;;;;;;;14.65;3.90;;;;;;;;;;4965769;28;25140;-67
2024/02/03 12:48:43;;;;;;;12.43;3.90;;;;;;;;;;4977852;28;25073;-67
2024/02/03 12:51:10;;;;;;;9.13;4.05;;;;;;;;;;4989396;28;25077;-64
2024/02/03 12:53:36;;;;;;;13.95;4.63;;;;;;;;;;5012859;28;25089;-65
2024/02/03 12:56:03;;;;;;;10.65;3.63;;;;;;;;;;4986911;28;25062;-66
2024/02/03 12:58:30;;;;;;;10.15;3.40;;;;;;;;;;4981627;28;25134;-67
2024/02/03 13:00:57;;;;;;;14.65;4.10;;;;;;;;;;4975765;28;25073;-67
2024/02/03 13:03:23;;;;;;;15.32;4.43;;;;;;;;;;4971736;28;25060;-67
2024/02/03 13:05:49;;;;;;;12.68;3.50;;;;;;;;;;4961875;28;25078;-68
2024/02/03 13:08:15;;;;;;;13.88;4.03;;;;;;;;;;4950032;28;25062;-66
2024/02/03 13:10:44;;;;;;;11.15;3.72;;;;;;;;;;4956819;28;25064;-68
2024/02/03 13:13:10;;;;;;;11.98;3.88;;;;;;;;;;4969702;28;25118;-68
2024/02/03 13:15:37;;;;;;;14.77;4.38;;;;;;;;;;4968449;28;25084;-66
2024/02/03 13:18:04;;;;;;;11.20;3.78;;;;;;;;;;4967226;28;25091;-66
2024/02/03 13:20:30;;;;;;;14.18;4.03;;;;;;;;;;4961087;28;25150;-67
2024/02/03 13:22:56;;;;;;;10.73;3.45;;;;;;;;;;4948913;28;25076;-68
2024/02/03 13:25:22;;;;;;;14.40;4.18;;;;;;;;;;4949582;28;25074;-67
2024/02/03 13:27:48;;;;;;;15.27;4.18;;;;;;;;;;4947623;28;25085;-68
2024/02/03 13:30:17;;;;;;;13.70;5.53;;;;;;;;;;4949543;28;25146;-69
2024/02/03 13:32:43;;;;;;;15.20;4.72;;;;;;;;;;4961997;28;25069;-67
2024/02/03 13:35:09;;;;;;;19.92;4.68;;;;;;;;;;4970707;28;25184;-68
2024/02/03 13:37:35;;;;;;;14.18;4.30;;;;;;;;;;4964248;28;25095;-67
2024/02/03 13:40:04;;;;;;;17.15;4.82;;;;;;;;;;4968983;28;25164;-68
2024/02/03 13:42:30;;;;;;;15.25;4.80;;;;;;;;;;4969259;28;25078;-68
2024/02/03 13:44:56;;;;;;;23.90;4.90;;;;;;;;;;4968738;28;25137;-68
2024/02/03 13:47:22;;;;;;;14.75;5.30;;;;;;;;;;4975108;28;25053;-67
2024/02/03 13:49:49;;;;;;;13.70;4.60;;;;;;;;;;4970102;28;25064;-67
2024/02/03 13:52:17;;;;;;;19.58;4.65;;;;;;;;;;4968616;28;25088;-67
2024/02/03 13:54:43;;;;;;;21.08;4.75;;;;;;;;;;4969352;28;25050;-67
2024/02/03 13:57:09;;;;;;;26.05;6.18;;;;;;;;;;4968910;28;25140;-69
2024/02/03 13:59:35;;;;;;;19.30;5.18;;;;;;;;;;4971431;28;25072;-67
2024/02/03 14:02:02;;;;;;;21.80;4.63;;;;;;;;;;4967697;28;25158;-68
2024/02/03 14:04:28;;;;;;;15.13;4.10;;;;;;;;;;4970695;28;25069;-68
2024/02/03 14:06:55;;;;;;;18.30;7.03;;;;;;;;;;4969486;28;25052;-67
2024/02/03 14:09:21;;;;;;;21.33;5.63;;;;;;;;;;4971980;28;25070;-67
2024/02/03 14:11:47;;;;;;;17.80;4.72;;;;;;;;;;4971846;28;25150;-68
2024/02/03 14:14:13;;;;;;;10.20;4.28;;;;;;;;;;4971531;28;25061;-66
2024/02/03 14:16:39;;;;;;;20.10;6.65;;;;;;;;;;4969941;28;25119;-65
2024/02/03 14:19:05;;;;;;;24.08;5.53;;;;;;;;;;4967857;28;25138;-66
2024/02/03 14:21:31;;;;;;;18.67;6.50;;;;;;;;;;4967382;28;25127;-68
2024/02/03 14:23:57;;;;;;;16.58;5.13;;;;;;;;;;4967579;28;25065;-67